Oss, Netherlands
Current Conditions -  °F | °C
As of 5:25 PM on Thursday 29 Jan 2015 (Local Time) from EHVK Reporting Station
Broken Clouds Broken Clouds  
Wind Chill: 30°   Ceiling: 3400
Heat Index: 39°   Visibility: 6mi
Dew Point: 34°   Wind: 16mph
Humidity: 81%   Direction: 210°SSW
Pressure: 28.85"   Gusts: NA
Location:  51.77°N, 5.52°E
Report Text: EHVK 291625Z AUTO 21014KT 9999 SCT023 SCT027 BKN034 04/01 Q0977 WHT 21017G27KT 9999 FEW020 SCT030 TEMPO 4000 -SHRASN FEW010 SCT016CB BKN020
Loading
Personal Weather Stations






























Interactive Weather Map New forecast layout! Learn more

10-Day Weather Forecast

Advertisements
Track Severe Weather on mobile